Time;durP1;ratioP1;P1;durP2;ratioP2;P2;SDS_P1;SDS_P2;PMS_P1;PMS_P2;Temp;Humidity;BMP_temperature;BMP_pressure;BME280_temperature;BME280_humidity;BME280_pressure;Samples;Min_cycle;Max_cycle;Signal;HPM_P1;HPM_P2
2022/05/10 00:00:03;;;;;;;;;;;23.80;40.30;;;;;;5052228;28;20012;-61
2022/05/10 00:02:29;;;;;;;;;;;23.90;41.50;;;;;;5051245;28;19915;-61
2022/05/10 00:04:55;;;;;;;;;;;23.90;41.30;;;;;;5051204;28;19920;-61
2022/05/10 00:07:21;;;;;;;;;;;23.90;40.50;;;;;;5067868;28;19913;-61
2022/05/10 00:09:46;;;;;;;;;;;23.90;40.60;;;;;;5052652;28;19908;-61
2022/05/10 00:12:12;;;;;;;;;;;23.90;40.90;;;;;;5052560;28;19913;-61
2022/05/10 00:14:38;;;;;;;;;;;23.90;40.90;;;;;;5052079;28;19908;-61
2022/05/10 00:17:03;;;;;;;;;;;23.90;40.00;;;;;;5052346;28;19912;-61
2022/05/10 00:19:30;;;;;;;;;;;23.90;41.10;;;;;;5051084;28;20380;-61
2022/05/10 00:21:56;;;;;;;;;;;23.80;40.80;;;;;;5052277;28;19990;-61
2022/05/10 00:24:21;;;;;;;;;;;23.80;40.80;;;;;;5034193;28;20344;-61
2022/05/10 00:26:48;;;;;;;;;;;23.80;40.50;;;;;;5051777;28;19962;-61
2022/05/10 00:29:13;;;;;;;;;;;23.80;40.60;;;;;;5063377;28;19915;-61
2022/05/10 00:31:38;;;;;;;;;;;23.80;39.60;;;;;;5072112;28;20346;-61
2022/05/10 00:34:04;;;;;;;;;;;23.80;40.10;;;;;;5072249;28;20335;-61
2022/05/10 00:36:29;;;;;;;;;;;23.80;40.40;;;;;;5072243;28;19918;-61
2022/05/10 00:38:55;;;;;;;;;;;23.80;40.20;;;;;;5061076;28;19920;-61
2022/05/10 00:41:23;;;;;;;;;;;23.80;39.50;;;;;;5051464;28;19974;-61
2022/05/10 00:43:50;;;;;;;;;;;23.80;39.60;;;;;;5050577;28;19925;-61
2022/05/10 00:46:17;;;;;;;;;;;23.80;40.30;;;;;;5053355;28;19965;-61
2022/05/10 00:49:01;;;;;;;;;;;23.80;39.60;;;;;;5070815;28;19908;-61
2022/05/10 00:51:39;;;;;;;;;;;23.80;40.00;;;;;;5070492;28;19955;-61
2022/05/10 00:54:31;;;;;;;;;;;23.80;39.40;;;;;;5052000;28;19936;-61
2022/05/10 00:57:05;;;;;;;;;;;23.80;40.00;;;;;;5047913;28;19912;-61
2022/05/10 00:59:44;;;;;;;;;;;23.80;40.10;;;;;;5051471;28;19913;-61
2022/05/10 01:02:18;;;;;;;;;;;23.80;39.70;;;;;;5051168;28;19936;-61
2022/05/10 01:04:46;;;;;;;;;;;23.80;39.80;;;;;;5050525;28;19920;-61
2022/05/10 01:07:19;;;;;;;;;;;23.70;39.70;;;;;;5050526;28;20432;-61
2022/05/10 01:10:02;;;;;;;;;;;23.70;40.00;;;;;;5052176;28;20262;-61
2022/05/10 01:12:32;;;;;;;;;;;23.70;39.30;;;;;;5050160;28;19916;-61
2022/05/10 01:15:02;;;;;;;;;;;23.70;39.80;;;;;;5051331;28;20102;-61
2022/05/10 01:17:27;;;;;;;;;;;23.70;39.50;;;;;;5050393;28;19999;-60
2022/05/10 01:19:53;;;;;;;;;;;23.70;39.20;;;;;;5052063;28;19948;-61
2022/05/10 01:22:37;;;;;;;;;;;23.80;40.00;;;;;;5051949;28;19913;-60
2022/05/10 01:25:14;;;;;;;;;;;23.70;39.20;;;;;;5051511;28;19919;-61
2022/05/10 01:27:50;;;;;;;;;;;23.70;39.10;;;;;;5049981;28;19912;-61
2022/05/10 01:30:16;;;;;;;;;;;23.70;39.70;;;;;;5069579;28;20296;-61
2022/05/10 01:35:45;;;;;;;;;;;23.60;39.00;;;;;;5077757;28;19919;-61
2022/05/10 01:38:37;;;;;;;;;;;23.60;39.30;;;;;;5050528;28;20000;-61
2022/05/10 01:41:07;;;;;;;;;;;23.60;38.90;;;;;;5048731;28;19909;-61
2022/05/10 01:43:38;;;;;;;;;;;23.60;39.10;;;;;;5050205;28;19924;-61
2022/05/10 01:46:07;;;;;;;;;;;23.60;39.20;;;;;;5033361;28;19991;-61
2022/05/10 01:48:34;;;;;;;;;;;23.60;38.60;;;;;;5050255;28;19912;-61
2022/05/10 01:51:04;;;;;;;;;;;23.60;38.70;;;;;;5050010;28;19912;-61
2022/05/10 01:53:30;;;;;;;;;;;23.60;39.10;;;;;;5054400;28;19913;-61
2022/05/10 01:56:01;;;;;;;;;;;23.60;39.00;;;;;;5054502;28;20364;-61
2022/05/10 01:58:30;;;;;;;;;;;23.60;38.70;;;;;;5053803;28;19932;-61
2022/05/10 02:00:57;;;;;;;;;;;23.60;38.80;;;;;;5054340;28;20007;-61
2022/05/10 02:03:37;;;;;;;;;;;23.60;39.10;;;;;;5053969;28;19952;-60
2022/05/10 02:06:22;;;;;;;;;;;23.60;39.20;;;;;;5054539;28;20007;-62
2022/05/10 02:08:49;;;;;;;;;;;23.60;38.70;;;;;;5055148;28;19913;-61
2022/05/10 02:11:15;;;;;;;;;;;23.60;38.90;;;;;;5053532;28;19917;-60
2022/05/10 02:13:43;;;;;;;;;;;23.60;39.00;;;;;;5036807;28;20046;-61
2022/05/10 02:16:20;;;;;;;;;;;23.60;38.60;;;;;;5052850;28;19909;-61
2022/05/10 02:18:49;;;;;;;;;;;23.60;38.90;;;;;;5036579;28;19909;-61
2022/05/10 02:21:44;;;;;;;;;;;23.50;39.00;;;;;;5054522;28;19909;-61
2022/05/10 02:24:14;;;;;;;;;;;23.50;38.50;;;;;;5049242;28;19917;-60
2022/05/10 02:26:42;;;;;;;;;;;23.50;38.60;;;;;;5036267;28;19931;-61
2022/05/10 02:29:10;;;;;;;;;;;23.50;38.20;;;;;;5063502;28;19908;-61
2022/05/10 02:33:06;;;;;;;;;;;23.50;38.80;;;;;;5073327;28;19935;-61
2022/05/10 02:34:26;;;;;;;;;;;23.50;38.30;;;;;;5073164;28;20093;-61
2022/05/10 02:36:52;;;;;;;;;;;23.50;38.70;;;;;;5073015;28;19995;-61
2022/05/10 02:39:17;;;;;;;;;;;23.50;38.30;;;;;;5059909;28;19916;-61
2022/05/10 02:41:43;;;;;;;;;;;23.50;38.50;;;;;;5052450;28;19955;-60
2022/05/10 02:44:08;;;;;;;;;;;23.50;38.60;;;;;;5053240;28;19925;-61
2022/05/10 02:46:34;;;;;;;;;;;23.50;38.60;;;;;;5058012;28;19917;-61
2022/05/10 02:49:00;;;;;;;;;;;23.50;38.50;;;;;;5074298;28;20299;-61
2022/05/10 02:51:25;;;;;;;;;;;23.50;38.40;;;;;;5054260;28;19915;-61
2022/05/10 02:53:51;;;;;;;;;;;23.50;38.00;;;;;;5053952;28;19913;-61
2022/05/10 02:56:17;;;;;;;;;;;23.50;38.40;;;;;;5053411;28;19909;-61
2022/05/10 02:58:49;;;;;;;;;;;23.50;38.20;;;;;;5052797;28;19915;-61
2022/05/10 03:01:16;;;;;;;;;;;23.50;39.40;;;;;;5053890;28;19976;-61
2022/05/10 03:03:42;;;;;;;;;;;23.50;38.10;;;;;;5052467;28;19909;-61
2022/05/10 03:06:07;;;;;;;;;;;23.50;38.30;;;;;;5053459;28;19932;-62
2022/05/10 03:08:33;;;;;;;;;;;23.50;38.50;;;;;;5054011;28;19910;-61
2022/05/10 03:10:58;;;;;;;;;;;23.50;38.00;;;;;;5051694;28;19919;-61
2022/05/10 03:13:24;;;;;;;;;;;23.40;38.30;;;;;;5052332;28;19913;-60
2022/05/10 03:15:49;;;;;;;;;;;23.40;38.60;;;;;;5052966;28;19909;-60
2022/05/10 03:18:15;;;;;;;;;;;23.40;38.50;;;;;;5058844;28;19912;-62
2022/05/10 03:20:40;;;;;;;;;;;23.40;38.20;;;;;;5072750;28;19947;-61
2022/05/10 03:23:06;;;;;;;;;;;23.40;38.50;;;;;;5073152;28;19908;-61
2022/05/10 03:25:31;;;;;;;;;;;23.40;38.70;;;;;;5071989;28;19913;-61
2022/05/10 03:27:59;;;;;;;;;;;23.40;38.40;;;;;;5072823;28;19916;-61
2022/05/10 03:30:27;;;;;;;;;;;23.40;38.20;;;;;;5072749;28;20264;-61
2022/05/10 03:32:53;;;;;;;;;;;23.40;38.30;;;;;;5073139;28;20322;-61
2022/05/10 03:35:19;;;;;;;;;;;23.40;38.30;;;;;;5068158;28;19920;-61
2022/05/10 03:37:44;;;;;;;;;;;23.40;38.00;;;;;;5053027;28;20003;-61
2022/05/10 03:40:10;;;;;;;;;;;23.40;38.50;;;;;;5053073;28;19915;-61
2022/05/10 03:42:41;;;;;;;;;;;23.30;38.20;;;;;;5064459;28;19919;-61
2022/05/10 03:45:07;;;;;;;;;;;23.30;38.20;;;;;;5052141;28;19979;-60
2022/05/10 03:47:32;;;;;;;;;;;23.30;38.30;;;;;;5052306;28;19912;-61
2022/05/10 03:49:58;;;;;;;;;;;23.30;38.60;;;;;;5051173;28;19915;-61
2022/05/10 03:52:23;;;;;;;;;;;23.30;38.30;;;;;;5053618;28;19919;-61
2022/05/10 03:54:49;;;;;;;;;;;23.20;38.60;;;;;;5052461;28;20283;-61
2022/05/10 03:57:14;;;;;;;;;;;23.30;38.40;;;;;;5052051;28;19917;-61
2022/05/10 03:59:43;;;;;;;;;;;23.20;38.20;;;;;;5050700;28;19908;-61
2022/05/10 04:02:11;;;;;;;;;;;23.20;38.60;;;;;;5052246;28;19908;-61
2022/05/10 04:04:37;;;;;;;;;;;23.30;38.40;;;;;;5052330;28;19996;-61
2022/05/10 04:07:02;;;;;;;;;;;23.30;38.50;;;;;;5052370;28;20320;-62
2022/05/10 04:09:28;;;;;;;;;;;23.30;38.10;;;;;;5053438;28;19964;-61
2022/05/10 04:11:53;;;;;;;;;;;23.30;38.40;;;;;;5051763;28;19966;-62
2022/05/10 04:14:18;;;;;;;;;;;23.20;38.00;;;;;;5051473;28;19965;-61
2022/05/10 04:16:44;;;;;;;;;;;23.20;38.20;;;;;;5052048;28;19908;-61
2022/05/10 04:19:09;;;;;;;;;;;23.20;38.40;;;;;;5051993;28;19916;-61
2022/05/10 04:21:35;;;;;;;;;;;23.20;38.40;;;;;;5052042;28;19913;-61
2022/05/10 04:24:00;;;;;;;;;;;23.20;38.40;;;;;;5067362;28;19959;-61
2022/05/10 04:26:26;;;;;;;;;;;23.30;38.40;;;;;;5052012;28;20002;-61
2022/05/10 04:28:52;;;;;;;;;;;23.30;38.00;;;;;;5058845;28;19909;-61
2022/05/10 04:31:17;;;;;;;;;;;23.20;38.10;;;;;;5071213;28;19908;-61
2022/05/10 04:33:43;;;;;;;;;;;23.20;38.30;;;;;;5072003;28;19915;-61
2022/05/10 04:36:08;;;;;;;;;;;23.20;38.40;;;;;;5071688;28;20296;-60
2022/05/10 04:38:34;;;;;;;;;;;23.20;38.10;;;;;;5063908;28;19959;-61
2022/05/10 04:43:43;;;;;;;;;;;23.20;38.30;;;;;;5052210;28;20398;-61
2022/05/10 04:46:09;;;;;;;;;;;23.10;38.30;;;;;;5057348;28;20179;-61
2022/05/10 04:48:34;;;;;;;;;;;23.10;38.40;;;;;;5070727;28;19966;-61
2022/05/10 04:51:00;;;;;;;;;;;23.10;38.30;;;;;;5071531;28;19909;-61
2022/05/10 04:53:25;;;;;;;;;;;23.20;38.40;;;;;;5053603;28;19920;-61
2022/05/10 04:55:51;;;;;;;;;;;23.20;38.30;;;;;;5051845;28;19909;-61
2022/05/10 04:58:16;;;;;;;;;;;23.10;38.00;;;;;;5050127;28;19978;-61
2022/05/10 05:00:42;;;;;;;;;;;23.10;38.30;;;;;;5050401;28;20319;-61
2022/05/10 05:03:07;;;;;;;;;;;23.10;38.60;;;;;;5051585;28;19913;-61
2022/05/10 05:05:33;;;;;;;;;;;23.10;38.20;;;;;;5051425;28;19913;-61
2022/05/10 05:07:58;;;;;;;;;;;23.10;38.60;;;;;;5054177;28;19916;-61
2022/05/10 05:10:24;;;;;;;;;;;23.10;38.40;;;;;;5070379;28;19920;-61
2022/05/10 05:12:50;;;;;;;;;;;23.00;38.40;;;;;;5071257;28;20003;-61
2022/05/10 05:15:16;;;;;;;;;;;23.00;38.30;;;;;;5071136;28;19999;-62
2022/05/10 05:17:41;;;;;;;;;;;23.00;38.50;;;;;;5062115;28;20324;-61
2022/05/10 05:20:07;;;;;;;;;;;23.00;38.60;;;;;;5069665;28;19955;-61
2022/05/10 05:22:33;;;;;;;;;;;23.00;38.60;;;;;;5071224;28;19957;-61
2022/05/10 05:24:58;;;;;;;;;;;23.00;38.60;;;;;;5071266;28;19977;-61
2022/05/10 05:27:24;;;;;;;;;;;23.00;38.60;;;;;;5072141;28;19912;-61
2022/05/10 05:29:49;;;;;;;;;;;23.00;38.70;;;;;;5074587;28;19915;-61
2022/05/10 05:32:16;;;;;;;;;;;23.00;38.60;;;;;;5073782;28;20308;-61
2022/05/10 05:34:41;;;;;;;;;;;23.00;38.60;;;;;;5065596;28;19916;-61
2022/05/10 05:39:50;;;;;;;;;;;23.00;39.00;;;;;;5055327;28;20382;-61
2022/05/10 05:42:17;;;;;;;;;;;23.00;38.70;;;;;;5053116;28;20015;-61
2022/05/10 05:44:43;;;;;;;;;;;23.10;38.60;;;;;;5054237;28;19946;-61
2022/05/10 05:47:08;;;;;;;;;;;23.10;38.70;;;;;;5054658;28;19917;-62
2022/05/10 05:49:34;;;;;;;;;;;23.00;38.60;;;;;;5054947;28;19913;-61
2022/05/10 05:52:00;;;;;;;;;;;23.00;38.80;;;;;;5060699;28;19947;-62
2022/05/10 05:54:25;;;;;;;;;;;23.00;38.90;;;;;;5074887;28;19920;-61
2022/05/10 05:56:57;;;;;;;;;;;23.00;39.00;;;;;;5073042;28;19909;-61
2022/05/10 05:59:22;;;;;;;;;;;22.90;38.90;;;;;;5073109;28;20421;-61
2022/05/10 06:01:48;;;;;;;;;;;23.00;39.00;;;;;;5073399;28;19917;-61
2022/05/10 06:04:13;;;;;;;;;;;23.00;39.10;;;;;;5072256;28;20387;-61
2022/05/10 06:06:39;;;;;;;;;;;23.00;39.10;;;;;;5074491;28;19935;-61
2022/05/10 06:09:04;;;;;;;;;;;22.90;39.10;;;;;;5073467;28;20009;-60
2022/05/10 06:11:29;;;;;;;;;;;22.90;39.00;;;;;;5073944;28;19977;-61
2022/05/10 06:13:55;;;;;;;;;;;22.90;39.20;;;;;;5074792;28;19919;-61
2022/05/10 06:16:21;;;;;;;;;;;23.00;39.20;;;;;;5073872;28;19908;-61
2022/05/10 06:18:46;;;;;;;;;;;22.90;39.10;;;;;;5059613;28;19913;-61
2022/05/10 06:21:11;;;;;;;;;;;23.00;39.30;;;;;;5054191;28;19948;-61
2022/05/10 06:23:37;;;;;;;;;;;23.00;39.40;;;;;;5054331;28;19908;-61
2022/05/10 06:26:02;;;;;;;;;;;23.00;39.40;;;;;;5065295;28;20383;-61
2022/05/10 06:28:29;;;;;;;;;;;23.00;39.60;;;;;;5074170;28;19948;-60
2022/05/10 06:30:56;;;;;;;;;;;23.00;39.70;;;;;;5068232;28;19928;-62
2022/05/10 06:33:21;;;;;;;;;;;22.90;39.60;;;;;;5064876;28;19912;-59
2022/05/10 06:35:47;;;;;;;;;;;23.00;40.00;;;;;;5069373;28;19962;-61
2022/05/10 06:38:16;;;;;;;;;;;23.00;39.60;;;;;;5072345;28;19913;-61
2022/05/10 06:40:42;;;;;;;;;;;23.00;39.60;;;;;;5073927;28;19909;-60
2022/05/10 06:43:07;;;;;;;;;;;23.00;39.60;;;;;;5071998;28;19916;-61
2022/05/10 06:45:33;;;;;;;;;;;22.90;39.80;;;;;;5073247;28;19913;-62
2022/05/10 06:47:58;;;;;;;;;;;22.90;40.10;;;;;;5073568;28;19913;-61
2022/05/10 06:50:24;;;;;;;;;;;22.80;40.00;;;;;;5073991;28;19912;-60
2022/05/10 06:52:50;;;;;;;;;;;22.80;40.10;;;;;;5073633;28;19912;-61
2022/05/10 06:55:16;;;;;;;;;;;22.90;40.20;;;;;;5074017;28;19913;-60
2022/05/10 06:57:41;;;;;;;;;;;22.80;40.10;;;;;;5071958;28;19966;-61
2022/05/10 07:00:07;;;;;;;;;;;22.80;40.20;;;;;;5073062;28;19909;-61
2022/05/10 07:02:32;;;;;;;;;;;22.80;40.40;;;;;;5073916;28;19931;-61
2022/05/10 07:04:58;;;;;;;;;;;22.80;40.40;;;;;;5073224;28;19999;-61
2022/05/10 07:07:23;;;;;;;;;;;22.80;40.50;;;;;;5062270;28;19913;-61
2022/05/10 07:09:49;;;;;;;;;;;22.80;40.50;;;;;;5053987;28;19913;-61
2022/05/10 07:12:14;;;;;;;;;;;22.80;40.60;;;;;;5053298;28;20258;-61
2022/05/10 07:14:40;;;;;;;;;;;22.80;40.60;;;;;;5052826;28;20039;-61
2022/05/10 07:17:05;;;;;;;;;;;22.80;40.70;;;;;;5053248;28;19917;-61
2022/05/10 07:19:31;;;;;;;;;;;22.80;40.90;;;;;;5053246;28;19916;-61
2022/05/10 07:21:57;;;;;;;;;;;22.80;40.80;;;;;;5061586;28;20368;-61
2022/05/10 07:24:22;;;;;;;;;;;22.90;40.90;;;;;;5056165;28;20392;-61
2022/05/10 07:26:48;;;;;;;;;;;22.90;41.30;;;;;;5066486;28;19917;-60
2022/05/10 07:29:14;;;;;;;;;;;22.90;40.80;;;;;;5065053;28;20295;-61
2022/05/10 07:31:39;;;;;;;;;;;22.90;41.00;;;;;;5069153;28;20003;-61
2022/05/10 07:34:05;;;;;;;;;;;22.90;41.10;;;;;;5064322;28;19979;-61
2022/05/10 07:36:33;;;;;;;;;;;22.90;41.10;;;;;;5071707;28;19920;-61
2022/05/10 07:39:06;;;;;;;;;;;22.90;41.20;;;;;;5069964;28;20447;-61
2022/05/10 07:41:32;;;;;;;;;;;22.90;41.30;;;;;;5066006;28;19959;-61
2022/05/10 07:43:57;;;;;;;;;;;22.90;41.40;;;;;;5071597;28;20400;-61
2022/05/10 07:46:23;;;;;;;;;;;22.90;41.40;;;;;;5071503;28;19912;-61
2022/05/10 07:48:48;;;;;;;;;;;22.90;41.40;;;;;;5072228;28;19908;-61
2022/05/10 07:51:13;;;;;;;;;;;22.90;41.70;;;;;;5065028;28;20000;-61
2022/05/10 07:53:41;;;;;;;;;;;23.00;41.60;;;;;;5052941;28;19913;-61
2022/05/10 07:56:06;;;;;;;;;;;23.00;41.60;;;;;;5055230;28;20356;-61
2022/05/10 07:58:32;;;;;;;;;;;23.00;42.10;;;;;;5058636;28;19971;-62
2022/05/10 08:00:59;;;;;;;;;;;23.00;41.80;;;;;;5069236;28;20348;-61
2022/05/10 08:03:25;;;;;;;;;;;23.00;42.00;;;;;;5065953;28;19912;-62
2022/05/10 08:05:51;;;;;;;;;;;23.00;42.40;;;;;;5071626;28;19919;-63
2022/05/10 08:08:19;;;;;;;;;;;22.80;42.50;;;;;;5063292;28;20232;-61
2022/05/10 08:10:45;;;;;;;;;;;22.80;42.80;;;;;;5070111;28;19952;-62
2022/05/10 08:13:11;;;;;;;;;;;22.80;43.00;;;;;;5070047;28;19908;-61
2022/05/10 08:15:37;;;;;;;;;;;22.70;43.20;;;;;;5071135;28;19921;-62
2022/05/10 08:18:02;;;;;;;;;;;22.70;43.20;;;;;;5064795;28;20008;-61
2022/05/10 08:20:28;;;;;;;;;;;22.70;43.30;;;;;;5071607;28;19920;-63
2022/05/10 08:22:53;;;;;;;;;;;22.70;43.50;;;;;;5071167;28;20299;-63
2022/05/10 08:25:19;;;;;;;;;;;22.70;43.50;;;;;;5058312;28;19951;-63
2022/05/10 08:27:44;;;;;;;;;;;22.70;43.70;;;;;;5055700;28;19912;-63
2022/05/10 08:30:10;;;;;;;;;;;22.70;43.80;;;;;;5069798;28;20376;-63
2022/05/10 08:32:35;;;;;;;;;;;22.70;43.70;;;;;;5071419;28;19917;-63
2022/05/10 08:35:01;;;;;;;;;;;22.70;43.80;;;;;;5071256;28;19909;-63
2022/05/10 08:37:26;;;;;;;;;;;22.70;43.80;;;;;;5070141;28;19909;-63
2022/05/10 08:39:52;;;;;;;;;;;22.80;43.90;;;;;;5070798;28;19915;-63
2022/05/10 08:42:19;;;;;;;;;;;22.80;43.90;;;;;;5061856;28;20058;-63
2022/05/10 08:44:44;;;;;;;;;;;22.80;44.60;;;;;;5069624;28;20010;-63
2022/05/10 08:47:10;;;;;;;;;;;22.80;44.00;;;;;;5070049;28;19947;-63
2022/05/10 08:49:38;;;;;;;;;;;22.80;44.00;;;;;;5071035;28;19912;-63
2022/05/10 08:52:05;;;;;;;;;;;22.80;44.00;;;;;;5069775;28;19953;-63
2022/05/10 08:54:31;;;;;;;;;;;22.80;44.00;;;;;;5072022;28;19916;-64
2022/05/10 08:56:57;;;;;;;;;;;22.90;44.00;;;;;;5070776;28;19908;-64
2022/05/10 08:59:26;;;;;;;;;;;22.90;44.00;;;;;;5055429;28;20023;-63
2022/05/10 09:01:55;;;;;;;;;;;23.00;43.90;;;;;;5054137;28;20372;-64
2022/05/10 09:04:38;;;;;;;;;;;23.00;43.80;;;;;;5047920;28;19963;-63
2022/05/10 09:07:16;;;;;;;;;;;23.10;43.80;;;;;;5068617;28;20327;-63
2022/05/10 09:09:47;;;;;;;;;;;23.20;43.70;;;;;;5055517;28;19920;-63
2022/05/10 09:12:22;;;;;;;;;;;23.30;43.50;;;;;;5058324;28;19995;-63
2022/05/10 09:14:48;;;;;;;;;;;23.40;43.20;;;;;;5073685;28;20326;-63
2022/05/10 09:17:13;;;;;;;;;;;23.50;43.30;;;;;;5055249;28;19995;-63
2022/05/10 09:19:40;;;;;;;;;;;23.50;43.40;;;;;;5060243;28;20262;-63
2022/05/10 09:22:12;;;;;;;;;;;23.50;43.50;;;;;;5072097;28;19917;-63
2022/05/10 09:24:46;;;;;;;;;;;23.50;43.70;;;;;;5075011;28;19913;-63
2022/05/10 09:27:13;;;;;;;;;;;23.50;43.80;;;;;;5075581;28;19909;-63
2022/05/10 09:29:40;;;;;;;;;;;23.50;43.80;;;;;;5077189;28;19920;-63
2022/05/10 09:35:12;;;;;;;;;;;23.50;43.70;;;;;;5071887;28;19919;-63
2022/05/10 09:37:51;;;;;;;;;;;23.60;43.70;;;;;;5072085;28;19981;-63
2022/05/10 09:40:17;;;;;;;;;;;23.60;43.70;;;;;;5068212;28;19915;-63
2022/05/10 09:42:43;;;;;;;;;;;23.60;43.50;;;;;;5066983;28;19924;-63
2022/05/10 09:45:12;;;;;;;;;;;23.60;43.50;;;;;;5068931;28;20017;-63
2022/05/10 09:47:38;;;;;;;;;;;23.60;43.60;;;;;;5057033;28;19909;-63
2022/05/10 09:50:11;;;;;;;;;;;23.70;43.70;;;;;;5072104;28;20468;-63
2022/05/10 09:52:37;;;;;;;;;;;23.70;43.80;;;;;;5066680;28;19913;-63
2022/05/10 09:55:05;;;;;;;;;;;23.70;43.80;;;;;;5073052;28;19908;-63
2022/05/10 09:57:31;;;;;;;;;;;23.70;43.80;;;;;;5072963;28;20397;-63
2022/05/10 09:59:57;;;;;;;;;;;23.70;43.80;;;;;;5066996;28;19917;-63
2022/05/10 10:02:32;;;;;;;;;;;23.70;43.70;;;;;;5063720;28;19997;-63
2022/05/10 10:04:58;;;;;;;;;;;23.80;43.70;;;;;;5070963;28;19917;-63
2022/05/10 10:07:25;;;;;;;;;;;23.80;43.60;;;;;;5070057;28;19912;-64
2022/05/10 10:09:52;;;;;;;;;;;23.80;43.60;;;;;;5073194;28;19940;-64
2022/05/10 10:12:28;;;;;;;;;;;23.80;43.60;;;;;;5072661;28;19967;-64
2022/05/10 10:14:53;;;;;;;;;;;23.80;43.50;;;;;;5071783;28;19909;-64
2022/05/10 10:17:24;;;;;;;;;;;23.80;43.60;;;;;;5069480;28;19912;-64
2022/05/10 10:19:55;;;;;;;;;;;23.80;43.80;;;;;;5066889;28;20363;-63
2022/05/10 10:22:33;;;;;;;;;;;23.70;43.60;;;;;;5073442;28;19908;-64
2022/05/10 10:25:05;;;;;;;;;;;23.80;43.60;;;;;;5053930;28;19927;-64
2022/05/10 10:27:42;;;;;;;;;;;23.80;43.60;;;;;;5067015;28;19994;-64
2022/05/10 10:30:19;;;;;;;;;;;23.80;43.70;;;;;;5035630;28;19913;-63
2022/05/10 10:32:46;;;;;;;;;;;23.80;43.80;;;;;;5064356;28;20267;-63
2022/05/10 10:35:14;;;;;;;;;;;23.70;43.70;;;;;;5068773;28;19920;-63
2022/05/10 10:37:45;;;;;;;;;;;23.80;43.50;;;;;;5069756;28;20380;-63
2022/05/10 10:40:27;;;;;;;;;;;23.80;43.50;;;;;;5040809;28;19909;-63
2022/05/10 10:42:52;;;;;;;;;;;23.80;43.40;;;;;;5067009;28;19912;-63
2022/05/10 10:45:18;;;;;;;;;;;23.80;43.50;;;;;;5068114;28;20249;-63
2022/05/10 10:47:58;;;;;;;;;;;23.90;43.30;;;;;;5071190;28;20328;-63
2022/05/10 10:50:24;;;;;;;;;;;23.90;42.90;;;;;;5071728;28;19908;-64
2022/05/10 10:52:49;;;;;;;;;;;23.90;43.00;;;;;;5072770;28;20381;-63
2022/05/10 10:55:18;;;;;;;;;;;23.90;42.90;;;;;;5069469;28;19912;-64
2022/05/10 10:57:53;;;;;;;;;;;23.90;42.50;;;;;;5062602;28;20330;-64
2022/05/10 11:00:19;;;;;;;;;;;23.90;42.70;;;;;;5064826;28;19974;-64
2022/05/10 11:03:00;;;;;;;;;;;24.00;42.60;;;;;;5054701;28;19908;-63
2022/05/10 11:05:44;;;;;;;;;;;24.00;42.40;;;;;;5072408;28;19966;-64
2022/05/10 11:08:29;;;;;;;;;;;24.00;42.30;;;;;;5060380;28;19909;-64
2022/05/10 11:11:12;;;;;;;;;;;24.00;42.20;;;;;;5066533;28;19923;-64
2022/05/10 11:13:41;;;;;;;;;;;24.00;42.90;;;;;;5072563;28;19912;-64
2022/05/10 11:16:25;;;;;;;;;;;24.00;42.30;;;;;;5052643;28;19955;-64
2022/05/10 11:19:08;;;;;;;;;;;24.00;42.30;;;;;;5051328;28;20043;-63
2022/05/10 11:21:49;;;;;;;;;;;24.00;42.20;;;;;;5059944;28;20287;-63
2022/05/10 11:24:18;;;;;;;;;;;24.10;42.20;;;;;;5071374;28;19916;-63
2022/05/10 11:26:43;;;;;;;;;;;24.10;42.00;;;;;;5071932;28;19913;-63
2022/05/10 11:29:14;;;;;;;;;;;24.10;42.10;;;;;;5072535;28;20037;-63
2022/05/10 11:31:42;;;;;;;;;;;24.10;42.20;;;;;;5056369;28;19912;-63
2022/05/10 11:34:26;;;;;;;;;;;24.10;42.00;;;;;;5071385;28;20009;-63
2022/05/10 11:36:52;;;;;;;;;;;24.20;42.10;;;;;;5062859;28;19908;-63
2022/05/10 11:39:36;;;;;;;;;;;24.20;42.10;;;;;;5071361;28;19931;-64
2022/05/10 11:42:11;;;;;;;;;;;24.20;41.80;;;;;;5056580;28;19909;-63
2022/05/10 11:44:40;;;;;;;;;;;24.20;41.70;;;;;;5070043;28;19993;-63
2022/05/10 11:47:08;;;;;;;;;;;24.20;41.60;;;;;;5071886;28;20364;-63
2022/05/10 11:49:36;;;;;;;;;;;24.20;41.60;;;;;;5057605;28;19999;-64
2022/05/10 11:52:14;;;;;;;;;;;24.30;42.00;;;;;;5071693;28;19909;-64
2022/05/10 11:54:40;;;;;;;;;;;24.20;42.10;;;;;;5071792;28;19912;-64
2022/05/10 11:57:08;;;;;;;;;;;24.30;42.10;;;;;;5071367;28;20375;-63
2022/05/10 11:59:35;;;;;;;;;;;24.30;42.50;;;;;;5068842;28;19912;-63
2022/05/10 12:02:01;;;;;;;;;;;24.30;42.20;;;;;;5068493;28;19963;-63
2022/05/10 12:04:40;;;;;;;;;;;24.30;42.00;;;;;;5064945;28;19960;-63
2022/05/10 12:07:20;;;;;;;;;;;24.30;42.00;;;;;;5069895;28;19931;-63
2022/05/10 12:09:52;;;;;;;;;;;24.30;42.20;;;;;;5066123;28;19920;-63
2022/05/10 12:12:33;;;;;;;;;;;24.30;42.00;;;;;;5065505;28;20303;-63
2022/05/10 12:21:19;;;;;;;;;;;24.30;41.70;;;;;;5073540;28;20367;-63
2022/05/10 12:24:00;;;;;;;;;;;24.30;41.70;;;;;;5056767;28;20006;-63
2022/05/10 12:26:33;;;;;;;;;;;24.30;41.70;;;;;;5070689;28;19917;-63
2022/05/10 12:28:58;;;;;;;;;;;24.30;41.90;;;;;;5061672;28;19959;-64
2022/05/10 12:31:30;;;;;;;;;;;24.30;41.80;;;;;;5059961;28;19968;-63
2022/05/10 12:33:59;;;;;;;;;;;24.40;42.00;;;;;;5068344;28;20338;-63
2022/05/10 12:36:31;;;;;;;;;;;24.40;42.20;;;;;;5052536;28;19912;-64
2022/05/10 12:38:57;;;;;;;;;;;24.40;42.30;;;;;;5068008;28;19921;-64
2022/05/10 12:41:30;;;;;;;;;;;24.40;42.30;;;;;;5068957;28;19936;-63
2022/05/10 12:43:56;;;;;;;;;;;24.40;42.40;;;;;;5075074;28;19932;-63
2022/05/10 12:46:27;;;;;;;;;;;24.40;42.30;;;;;;5069381;28;22602;-63
2022/05/10 12:49:16;;;;;;;;;;;24.40;42.30;;;;;;5068197;28;19912;-63
2022/05/10 12:51:44;;;;;;;;;;;24.40;42.30;;;;;;5050149;28;19990;-63
2022/05/10 12:54:15;;;;;;;;;;;24.40;42.30;;;;;;5069778;28;20314;-63
2022/05/10 12:56:40;;;;;;;;;;;24.40;42.30;;;;;;5067365;28;19955;-64
2022/05/10 12:59:20;;;;;;;;;;;24.40;42.30;;;;;;5071003;28;20356;-63
2022/05/10 13:01:46;;;;;;;;;;;24.40;42.30;;;;;;5070769;28;20002;-63
2022/05/10 13:04:20;;;;;;;;;;;24.40;42.20;;;;;;5070883;28;20008;-64
2022/05/10 13:06:49;;;;;;;;;;;24.40;42.10;;;;;;5068245;28;19947;-63
2022/05/10 13:09:30;;;;;;;;;;;24.40;42.20;;;;;;5061761;28;19913;-63
2022/05/10 13:12:05;;;;;;;;;;;24.40;42.20;;;;;;5070313;28;19995;-63
2022/05/10 13:14:31;;;;;;;;;;;24.40;42.20;;;;;;5062141;28;19916;-63
2022/05/10 13:16:59;;;;;;;;;;;24.40;42.40;;;;;;5065715;28;19923;-63
2022/05/10 13:19:25;;;;;;;;;;;24.40;42.30;;;;;;5067403;28;19920;-63
2022/05/10 13:21:51;;;;;;;;;;;24.40;42.40;;;;;;5066939;28;19916;-63
2022/05/10 13:24:18;;;;;;;;;;;24.40;42.40;;;;;;5069902;28;19978;-64
2022/05/10 13:26:52;;;;;;;;;;;24.40;42.40;;;;;;5068870;28;20017;-63
2022/05/10 13:29:18;;;;;;;;;;;24.40;42.50;;;;;;5070020;28;20282;-63
2022/05/10 13:31:43;;;;;;;;;;;24.40;42.50;;;;;;5063037;28;19932;-64
2022/05/10 13:34:13;;;;;;;;;;;24.40;42.60;;;;;;5070737;28;19959;-63
2022/05/10 13:36:41;;;;;;;;;;;24.40;42.50;;;;;;5070498;28;19974;-63
2022/05/10 13:39:06;;;;;;;;;;;24.40;42.50;;;;;;5068636;28;19916;-63
2022/05/10 13:41:33;;;;;;;;;;;24.50;42.70;;;;;;5068209;28;19962;-63
2022/05/10 13:44:25;;;;;;;;;;;24.50;42.70;;;;;;5069224;28;20368;-63
2022/05/10 13:46:57;;;;;;;;;;;24.50;42.70;;;;;;5065823;28;20018;-63
2022/05/10 13:49:26;;;;;;;;;;;24.40;42.60;;;;;;5068463;28;19921;-63
2022/05/10 13:51:52;;;;;;;;;;;24.50;42.70;;;;;;5064206;28;19956;-63
2022/05/10 13:54:28;;;;;;;;;;;24.50;42.70;;;;;;5072946;28;19974;-63
2022/05/10 13:56:54;;;;;;;;;;;24.50;42.80;;;;;;5067694;28;19913;-63
2022/05/10 13:59:29;;;;;;;;;;;24.50;42.80;;;;;;5072406;28;19981;-64
2022/05/10 14:01:55;;;;;;;;;;;24.40;42.80;;;;;;5072456;28;20379;-64
2022/05/10 14:04:21;;;;;;;;;;;24.40;42.80;;;;;;5068682;28;19951;-64
2022/05/10 14:06:49;;;;;;;;;;;24.50;42.90;;;;;;5073829;28;19913;-64
2022/05/10 14:09:15;;;;;;;;;;;24.50;42.90;;;;;;5071836;28;19916;-64
2022/05/10 14:11:42;;;;;;;;;;;24.50;42.90;;;;;;5073256;28;20266;-64
2022/05/10 14:14:11;;;;;;;;;;;24.50;43.00;;;;;;5074260;28;19913;-64
2022/05/10 14:16:40;;;;;;;;;;;24.50;43.10;;;;;;5072939;28;19917;-64
2022/05/10 14:19:08;;;;;;;;;;;24.50;43.20;;;;;;5060201;28;19924;-64
2022/05/10 14:21:34;;;;;;;;;;;24.50;43.30;;;;;;5069080;28;19909;-64
2022/05/10 14:23:59;;;;;;;;;;;24.50;43.40;;;;;;5072764;28;19912;-63
2022/05/10 14:26:36;;;;;;;;;;;24.50;43.50;;;;;;5073419;28;19920;-63
2022/05/10 14:29:13;;;;;;;;;;;24.40;43.50;;;;;;5072028;28;20364;-64
2022/05/10 14:31:39;;;;;;;;;;;24.40;43.70;;;;;;5070879;28;19955;-64
2022/05/10 14:34:05;;;;;;;;;;;24.40;43.70;;;;;;5073912;28;19913;-63
2022/05/10 14:36:37;;;;;;;;;;;24.40;43.70;;;;;;5072202;28;20268;-64
2022/05/10 14:39:04;;;;;;;;;;;24.40;43.70;;;;;;5061720;28;20278;-64
2022/05/10 14:41:44;;;;;;;;;;;24.40;43.80;;;;;;5070380;28;19923;-63